N258TA PASX-PASX

Flight info

Callsign N258TA
Flight time N/A
Altitude 6000
Route VFR
Aircraft C208/L-G/C

Departure

Time 2026-05-07 05:34
Airport Soldotna Airport (PASX)

Arrival

Time N/A
Airport Soldotna Airport (PASX)
Time Latitude Longitude Altitude Speed Heading
2026-05-07 05:34 60.61753 -151.58575 2459 ft 134 kts 308°
2026-05-07 05:34 60.62413 -151.59884 2596 ft 131 kts 310°
2026-05-07 05:34 60.63078 -151.61150 2684 ft 132 kts 311°
2026-05-07 05:34 60.63764 -151.62434 2739 ft 134 kts 308°
2026-05-07 05:35 60.64379 -151.63854 2798 ft 134 kts 302°
2026-05-07 05:35 60.64905 -151.65412 2873 ft 132 kts 291°
2026-05-07 05:35 60.65117 -151.67157 2865 ft 132 kts 270°
2026-05-07 05:35 60.65340 -151.69049 2922 ft 132 kts 286°
2026-05-07 05:36 60.65592 -151.70724 3108 ft 127 kts 284°
2026-05-07 05:36 60.65915 -151.72514 3032 ft 139 kts 288°
2026-05-07 05:36 60.66300 -151.74284 3141 ft 136 kts 293°
2026-05-07 05:36 60.66764 -151.75946 3222 ft 136 kts 300°
2026-05-07 05:37 60.67281 -151.77553 3304 ft 135 kts 300°
2026-05-07 05:37 60.67827 -151.79192 3251 ft 143 kts 302°
2026-05-07 05:37 60.68210 -151.80311 3199 ft 147 kts 302°
2026-05-07 05:37 60.68818 -151.82035 3127 ft 150 kts 303°
2026-05-07 05:38 60.69421 -151.83745 3129 ft 149 kts 302°
2026-05-07 05:38 60.70139 -151.85986 3261 ft 141 kts 298°
2026-05-07 05:38 60.70527 -151.87151 3140 ft 150 kts 302°
2026-05-07 05:38 60.71164 -151.88906 3052 ft 151 kts 303°
2026-05-07 05:39 60.71798 -151.90687 2856 ft 160 kts 304°
2026-05-07 05:39 60.72494 -151.92421 2813 ft 155 kts 304°
2026-05-07 05:39 60.73161 -151.94196 2619 ft 161 kts 305°
2026-05-07 05:39 60.73847 -151.96007 2452 ft 163 kts 306°
2026-05-07 05:40 60.74582 -151.97825 2213 ft 164 kts 306°
2026-05-07 05:40 60.75270 -151.99666 2023 ft 164 kts 300°
2026-05-07 05:40 60.75821 -152.01580 2102 ft 149 kts 295°
2026-05-07 05:40 60.76320 -152.03522 1887 ft 155 kts 294°
2026-05-07 05:41 60.76811 -152.05482 1764 ft 154 kts 292°
2026-05-07 05:41 60.77242 -152.07455 1684 ft 154 kts 289°
2026-05-07 05:41 60.77658 -152.09552 1353 ft 165 kts 285°
2026-05-07 05:41 60.77989 -152.11732 1285 ft 156 kts 282°
2026-05-07 05:42 60.78261 -152.13876 1149 ft 156 kts 279°
2026-05-07 05:42 60.78550 -152.16063 970 ft 157 kts 283°
2026-05-07 05:42 60.78845 -152.18165 929 ft 151 kts 281°
2026-05-07 05:42 60.79175 -152.20211 868 ft 152 kts 291°
2026-05-07 05:43 60.79719 -152.22046 831 ft 151 kts 298°
2026-05-07 05:43 60.80165 -152.23993 704 ft 152 kts 289°
2026-05-07 05:43 60.80512 -152.25984 677 ft 149 kts 283°
2026-05-07 05:43 60.80688 -152.28053 734 ft 140 kts 270°
2026-05-07 05:44 60.80645 -152.30024 772 ft 137 kts 263°
2026-05-07 05:44 60.80467 -152.31881 784 ft 123 kts 264°
2026-05-07 05:44 60.80448 -152.33611 481 ft 115 kts 272°
2026-05-07 05:44 60.80421 -152.35070 418 ft 97 kts 257°
2026-05-07 05:45 60.80261 -152.36416 495 ft 99 kts 259°
2026-05-07 05:45 60.80274 -152.37721 767 ft 87 kts 282°
2026-05-07 05:45 60.80457 -152.38963 847 ft 92 kts 250°
2026-05-07 05:45 60.80013 -152.39002 963 ft 91 kts 99°
2026-05-07 05:46 60.80133 -152.37663 754 ft 88 kts 71°
2026-05-07 05:46 60.80321 -152.36503 464 ft 83 kts 75°
2026-05-07 05:46 60.80480 -152.35382 242 ft 73 kts 73°
2026-05-07 05:46 60.80579 -152.34554 237 ft 50 kts 87°
2026-05-07 05:47 60.80517 -152.34377 235 ft 8 kts 284°
2026-05-07 05:47 60.80529 -152.34536 235 ft 13 kts 279°
2026-05-07 05:47 60.80529 -152.34699 235 ft 10 kts 255°
2026-05-07 05:47 60.80499 -152.34840 235 ft 13 kts 247°
2026-05-07 05:48 60.80452 -152.35073 238 ft 27 kts 248°
2026-05-07 05:48 60.80369 -152.35538 239 ft 32 kts 256°
2026-05-07 05:48 60.80423 -152.35755 238 ft 11 kts 269°
2026-05-07 05:48 60.80422 -152.35822 238 ft 2 kts 284°
2026-05-07 05:49 60.80423 -152.35833 238 ft 0 kts 279°
2026-05-07 05:49 60.80422 -152.35824 238 ft 1 kts 279°
2026-05-07 05:49 60.80423 -152.35820 238 ft 3 kts 283°
2026-05-07 05:49 60.80428 -152.35845 238 ft 0 kts 325°
2026-05-07 05:50 60.80428 -152.35846 238 ft 0 kts 323°
2026-05-07 05:51 60.80428 -152.35847 238 ft 0 kts 322°
2026-05-07 05:54 60.80429 -152.35847 235 ft 0 kts 330°
2026-05-07 05:55 60.80433 -152.35852 238 ft 0 kts 313°
2026-05-07 05:56 60.80425 -152.35858 241 ft 5 kts 235°
2026-05-07 05:56 60.80393 -152.35876 241 ft 6 kts 109°
2026-05-07 05:57 60.80419 -152.35619 239 ft 42 kts 74°
2026-05-07 05:57 60.80504 -152.34814 302 ft 63 kts 82°
2026-05-07 05:57 60.80493 -152.33864 415 ft 71 kts 96°
2026-05-07 05:57 60.80478 -152.32765 504 ft 85 kts 83°
2026-05-07 05:58 60.80485 -152.31504 690 ft 93 kts 91°
2026-05-07 05:58 60.80442 -152.30141 867 ft 100 kts 102°
2026-05-07 05:58 60.80196 -152.28609 950 ft 122 kts 109°
2026-05-07 05:58 60.80161 -152.26932 1302 ft 127 kts 77°
2026-05-07 05:59 60.80228 -152.25028 1367 ft 138 kts 106°
2026-05-07 05:59 60.79944 -152.23168 1585 ft 137 kts 117°
2026-05-07 05:59 60.79559 -152.21360 1706 ft 144 kts 122°
2026-05-07 05:59 60.79058 -152.19584 1921 ft 140 kts 127°
2026-05-07 06:00 60.78511 -152.17963 2210 ft 136 kts 128°
2026-05-07 06:00 60.77994 -152.16312 2344 ft 144 kts 126°
2026-05-07 06:00 60.77398 -152.14661 2538 ft 141 kts 132°
2026-05-07 06:00 60.76796 -152.13109 2816 ft 137 kts 131°
2026-05-07 06:01 60.76241 -152.11522 3031 ft 140 kts 124°
2026-05-07 06:01 60.75679 -152.09866 3153 ft 144 kts 133°
2026-05-07 06:01 60.74897 -152.08567 3290 ft 144 kts 147°
2026-05-07 06:01 60.74109 -152.07373 3521 ft 140 kts 147°
2026-05-07 06:02 60.73329 -152.06212 3779 ft 136 kts 142°
2026-05-07 06:02 60.72673 -152.04785 3926 ft 142 kts 133°
2026-05-07 06:02 60.72075 -152.03158 4101 ft 142 kts 129°
2026-05-07 06:02 60.71396 -152.01655 4238 ft 142 kts 139°